createdAt,value
2023-03-28T00:00:49.442Z,88.78
2023-03-28T00:03:19.426Z,89.17
2023-03-28T00:05:50.593Z,89.14
2023-03-28T00:08:19.084Z,89.05
2023-03-28T00:10:46.505Z,89.23
2023-03-28T00:13:14.810Z,89.68
2023-03-28T00:15:43.227Z,89.07
2023-03-28T00:18:15.243Z,89.78
2023-03-28T00:20:43.911Z,90.16
2023-03-28T00:23:12.353Z,90.32
2023-03-28T00:25:42.258Z,90.02
2023-03-28T00:30:37.062Z,89.84
2023-03-28T00:33:05.703Z,90.02
2023-03-28T00:35:33.787Z,90.24
2023-03-28T00:38:00.694Z,90.22
2023-03-28T00:40:31.099Z,90.72
2023-03-28T00:42:58.000Z,90.57
2023-03-28T00:45:24.940Z,90.37
2023-03-28T00:47:53.513Z,90.35
2023-03-28T00:50:31.090Z,90.24
2023-03-28T00:55:42.559Z,90.64
2023-03-28T00:58:10.364Z,90.35
2023-03-28T01:00:41.702Z,90.66
2023-03-28T01:05:36.690Z,90.12
2023-03-28T01:08:11.269Z,89.53
2023-03-28T01:10:38.111Z,89.42
2023-03-28T01:13:06.353Z,89.67
2023-03-28T01:15:33.880Z,89.21
2023-03-28T01:18:11.407Z,89.05
2023-03-28T01:20:56.465Z,88.43
2023-03-28T01:24:11.891Z,89.59
2023-03-28T01:26:57.153Z,89.07
2023-03-28T01:29:38.496Z,90.03
2023-03-28T01:32:10.464Z,89.95
2023-03-28T01:37:47.359Z,89.72
2023-03-28T01:40:32.672Z,91.25
2023-03-28T01:43:11.260Z,91.91
2023-03-28T01:45:50.131Z,92.01
2023-03-28T01:48:16.805Z,92.78
2023-03-28T01:50:50.609Z,92.42
2023-03-28T01:53:43.368Z,92.54
2023-03-28T01:56:11.327Z,91.96
2023-03-28T01:58:50.426Z,92.24
2023-03-28T02:01:23.318Z,91.02
2023-03-28T02:03:55.698Z,91.79
2023-03-28T02:06:23.764Z,91.04
2023-03-28T02:08:53.966Z,91.00
2023-03-28T02:11:20.885Z,91.13
2023-03-28T02:16:41.633Z,89.78
2023-03-28T02:19:11.314Z,89.72
2023-03-28T02:21:52.530Z,90.03
2023-03-28T02:24:20.034Z,90.05
2023-03-28T02:26:47.641Z,89.99
2023-03-28T02:29:17.204Z,89.60
2023-03-28T02:31:44.388Z,90.13
2023-03-28T02:34:11.440Z,89.88
2023-03-28T02:37:12.148Z,89.30
2023-03-28T02:39:50.021Z,90.47
2023-03-28T02:42:35.344Z,89.18
2023-03-28T02:45:05.159Z,88.88
2023-03-28T02:47:55.292Z,89.96
2023-03-28T02:50:57.865Z,90.60
2023-03-28T02:53:45.397Z,90.83
2023-03-28T02:56:20.384Z,90.16
2023-03-28T02:58:55.911Z,90.04
2023-03-28T03:01:29.576Z,90.05
2023-03-28T03:03:58.286Z,90.29
2023-03-28T03:06:25.599Z,90.79
2023-03-28T03:08:52.427Z,91.31
2023-03-28T03:11:19.307Z,91.22
2023-03-28T03:13:46.198Z,91.89
2023-03-28T03:16:13.067Z,91.43
2023-03-28T03:18:39.982Z,91.18
2023-03-28T03:21:07.043Z,90.76
2023-03-28T03:23:33.868Z,90.69
2023-03-28T03:26:00.915Z,91.57
2023-03-28T03:28:28.668Z,91.93
2023-03-28T03:30:55.466Z,92.01
2023-03-28T03:33:22.276Z,90.86
2023-03-28T03:35:49.154Z,91.75
2023-03-28T03:38:17.127Z,92.10
2023-03-28T03:40:44.007Z,92.89
2023-03-28T03:43:10.954Z,92.70
2023-03-28T03:45:40.888Z,93.34
2023-03-28T03:48:07.935Z,93.64
2023-03-28T03:50:34.922Z,93.04
2023-03-28T03:53:03.434Z,93.44
2023-03-28T03:55:30.607Z,94.12
2023-03-28T03:57:57.358Z,94.57
2023-03-28T04:00:24.390Z,94.59
2023-03-28T04:02:51.219Z,94.17
2023-03-28T04:05:18.776Z,94.22
2023-03-28T04:07:45.635Z,95.00
2023-03-28T04:10:12.937Z,94.56
2023-03-28T04:12:40.373Z,93.75
2023-03-28T04:15:08.853Z,92.56
2023-03-28T04:17:36.465Z,93.32
2023-03-28T04:20:11.620Z,92.88
2023-03-28T04:22:45.626Z,93.33
2023-03-28T04:25:14.317Z,92.93
2023-03-28T04:27:46.575Z,91.61
2023-03-28T04:30:16.286Z,92.12
2023-03-28T04:32:44.130Z,92.34
2023-03-28T04:35:12.903Z,93.32
2023-03-28T04:37:40.018Z,92.96
2023-03-28T04:40:11.398Z,93.22
2023-03-28T04:42:41.707Z,92.87
2023-03-28T04:47:40.370Z,92.90
2023-03-28T04:50:08.848Z,93.22
2023-03-28T04:52:36.796Z,93.17
2023-03-28T04:55:04.938Z,93.53
2023-03-28T04:57:31.822Z,93.18
2023-03-28T04:59:58.712Z,93.34
2023-03-28T05:02:25.586Z,92.95
2023-03-28T05:04:53.795Z,92.98
2023-03-28T05:07:20.825Z,92.65
2023-03-28T05:09:48.524Z,92.94
2023-03-28T05:12:15.344Z,93.05
2023-03-28T05:14:42.228Z,91.96
2023-03-28T05:19:36.608Z,92.31
2023-03-28T05:22:03.569Z,91.90
2023-03-28T05:24:30.634Z,91.68
2023-03-28T05:26:57.444Z,91.37
2023-03-28T05:29:24.522Z,91.29
2023-03-28T05:31:51.365Z,91.14
2023-03-28T05:34:18.948Z,91.25
2023-03-28T05:36:46.050Z,91.08
2023-03-28T05:39:13.024Z,91.13
2023-03-28T05:41:40.265Z,91.40
2023-03-28T05:44:07.045Z,91.29
2023-03-28T05:46:33.881Z,91.34
2023-03-28T05:49:00.862Z,90.26
2023-03-28T05:51:27.682Z,90.09
2023-03-28T05:53:54.431Z,90.45
2023-03-28T05:56:21.525Z,89.98
2023-03-28T05:58:48.728Z,90.20
2023-03-28T06:01:18.818Z,90.87
2023-03-28T06:03:46.063Z,89.84
2023-03-28T06:06:13.873Z,89.00
2023-03-28T06:08:40.952Z,88.70
2023-03-28T06:11:08.318Z,87.85
2023-03-28T06:13:35.117Z,87.47
2023-03-28T06:16:01.987Z,87.54
2023-03-28T06:18:28.882Z,87.39
2023-03-28T06:20:55.769Z,87.66
2023-03-28T06:23:22.771Z,87.00
2023-03-28T06:25:50.315Z,86.95
2023-03-28T06:28:17.129Z,86.42
2023-03-28T06:30:48.718Z,86.33
2023-03-28T06:33:15.686Z,86.40
2023-03-28T06:35:42.596Z,85.98
2023-03-28T06:40:35.975Z,85.45
2023-03-28T06:43:02.737Z,85.83
2023-03-28T06:45:29.549Z,85.75
2023-03-28T06:47:56.468Z,85.25
2023-03-28T06:50:23.295Z,84.93
2023-03-28T06:52:50.441Z,84.92
2023-03-28T06:55:17.237Z,84.59
2023-03-28T06:57:44.224Z,84.20
2023-03-28T07:00:11.726Z,84.33
2023-03-28T07:02:38.725Z,83.95
2023-03-28T07:05:06.016Z,83.51
2023-03-28T07:07:32.880Z,82.89
2023-03-28T07:09:59.748Z,82.87
2023-03-28T07:12:26.764Z,82.32
2023-03-28T07:14:53.505Z,82.62
2023-03-28T07:17:20.960Z,82.49
2023-03-28T07:19:51.336Z,82.16
2023-03-28T07:22:18.181Z,82.26
2023-03-28T07:24:45.019Z,81.83
2023-03-28T07:27:15.550Z,81.93
2023-03-28T07:29:43.677Z,81.19
2023-03-28T07:32:11.593Z,81.20
2023-03-28T07:34:38.411Z,79.85
2023-03-28T07:37:05.630Z,79.31
2023-03-28T07:39:32.796Z,79.50
2023-03-28T07:42:00.026Z,78.88
2023-03-28T07:44:26.868Z,79.00
2023-03-28T07:46:54.983Z,77.94
2023-03-28T07:49:21.873Z,76.90
2023-03-28T07:51:48.935Z,76.37
2023-03-28T07:54:18.228Z,75.01
2023-03-28T07:56:46.315Z,74.71
2023-03-28T07:59:13.967Z,72.97
2023-03-28T08:01:45.385Z,71.31
2023-03-28T08:04:14.265Z,71.54
2023-03-28T08:06:41.256Z,71.75
2023-03-28T08:11:36.726Z,65.77
2023-03-28T08:14:04.741Z,64.92
2023-03-28T08:16:31.854Z,64.55
2023-03-28T08:19:09.930Z,63.57
2023-03-28T08:21:35.902Z,65.21
2023-03-28T08:24:04.686Z,63.93
2023-03-28T08:26:31.637Z,62.40
2023-03-28T08:29:01.361Z,60.26
2023-03-28T08:31:29.273Z,62.05
2023-03-28T08:33:57.053Z,59.40
2023-03-28T08:36:26.078Z,57.60
2023-03-28T08:38:55.344Z,55.82
2023-03-28T08:41:41.237Z,52.78
2023-03-28T08:44:10.562Z,53.47
2023-03-28T08:46:42.270Z,53.59
2023-03-28T08:49:10.564Z,54.17
2023-03-28T08:51:41.132Z,52.01
2023-03-28T08:54:10.544Z,48.35
2023-03-28T08:56:44.554Z,49.15
2023-03-28T08:59:14.462Z,47.43
2023-03-28T09:01:41.372Z,45.29
2023-03-28T09:04:11.554Z,50.56
2023-03-28T09:06:43.480Z,54.11
2023-03-28T09:09:10.592Z,55.53
2023-03-28T09:11:40.780Z,53.47
2023-03-28T09:17:09.916Z,51.48
2023-03-28T09:19:56.788Z,47.52
2023-03-28T09:22:46.577Z,47.10
2023-03-28T09:25:19.228Z,47.98
2023-03-28T09:28:00.016Z,46.65
2023-03-28T09:30:34.096Z,48.78
2023-03-28T09:33:05.230Z,48.43
2023-03-28T09:35:33.000Z,44.23
2023-03-28T09:38:07.420Z,42.49
2023-03-28T09:40:36.017Z,39.51
2023-03-28T09:43:20.241Z,38.77
2023-03-28T09:46:00.587Z,40.52
2023-03-28T09:48:36.607Z,42.75
2023-03-28T09:51:05.632Z,43.49
2023-03-28T09:53:35.766Z,43.27
2023-03-28T09:56:06.449Z,40.60
2023-03-28T09:59:11.124Z,41.08
2023-03-28T10:01:46.437Z,40.25
2023-03-28T10:04:17.721Z,36.89
2023-03-28T10:06:46.517Z,36.63
2023-03-28T10:09:21.424Z,39.40
2023-03-28T10:11:54.901Z,39.33
2023-03-28T10:14:48.219Z,36.95
2023-03-28T10:19:47.453Z,34.98
2023-03-28T10:22:19.270Z,35.12
2023-03-28T10:24:47.891Z,36.36
2023-03-28T10:29:46.582Z,37.09
2023-03-28T10:32:14.834Z,37.15
2023-03-28T10:34:41.692Z,37.65
2023-03-28T10:37:19.566Z,36.39
2023-03-28T10:39:59.264Z,35.15
2023-03-28T10:42:26.475Z,34.66
2023-03-28T10:45:02.990Z,33.95
2023-03-28T10:47:31.529Z,33.58
2023-03-28T10:49:59.088Z,34.07
2023-03-28T10:52:37.655Z,34.97
2023-03-28T10:55:19.286Z,34.58
2023-03-28T11:00:59.831Z,33.65
2023-03-28T11:03:32.888Z,33.86
2023-03-28T11:06:09.854Z,35.36
2023-03-28T11:09:02.695Z,34.86
2023-03-28T11:11:32.605Z,33.15
2023-03-28T11:14:16.988Z,33.57
2023-03-28T11:17:07.917Z,32.43
2023-03-28T11:19:43.565Z,34.36
2023-03-28T11:22:19.335Z,33.40
2023-03-28T11:25:09.347Z,34.71
2023-03-28T11:28:20.283Z,33.59
2023-03-28T11:30:49.902Z,32.81
2023-03-28T11:33:24.013Z,33.31
2023-03-28T11:36:01.791Z,36.84
2023-03-28T11:38:36.300Z,34.70
2023-03-28T11:41:06.929Z,33.38
2023-03-28T11:43:46.235Z,32.67
2023-03-28T11:46:19.351Z,32.42
2023-03-28T11:49:01.413Z,31.61
2023-03-28T11:51:57.746Z,31.68
2023-03-28T11:54:51.350Z,31.57
2023-03-28T11:57:20.295Z,32.95
2023-03-28T12:00:33.126Z,30.65
2023-03-28T12:03:14.353Z,30.80
2023-03-28T12:05:57.819Z,31.37
2023-03-28T12:08:39.515Z,29.30
2023-03-28T12:11:14.209Z,33.50
2023-03-28T12:14:12.144Z,33.05
2023-03-28T12:16:46.057Z,34.52
2023-03-28T12:22:15.761Z,32.71
2023-03-28T12:24:48.987Z,33.03
2023-03-28T12:27:20.258Z,31.93
2023-03-28T12:30:22.674Z,28.91
2023-03-28T12:33:20.898Z,28.98
2023-03-28T12:36:11.622Z,28.67
2023-03-28T12:38:46.477Z,27.58
2023-03-28T12:41:20.358Z,26.94
2023-03-28T12:43:49.576Z,28.12
2023-03-28T12:46:20.321Z,28.28
2023-03-28T12:48:53.696Z,27.93
2023-03-28T12:51:31.002Z,26.55
2023-03-28T12:54:20.643Z,27.22
2023-03-28T12:56:58.698Z,27.54
2023-03-28T12:59:44.822Z,29.45
2023-03-28T13:02:19.370Z,28.67
2023-03-28T13:04:59.182Z,27.87
2023-03-28T13:08:03.774Z,28.22
2023-03-28T13:10:34.905Z,25.48
2023-03-28T13:13:19.383Z,26.33
2023-03-28T13:16:04.126Z,24.10
2023-03-28T13:18:34.103Z,25.62
2023-03-28T13:21:04.596Z,29.89
2023-03-28T13:23:47.219Z,28.25
2023-03-28T13:26:15.696Z,29.78
2023-03-28T13:28:49.107Z,28.44
2023-03-28T13:31:20.837Z,28.32
2023-03-28T13:34:02.152Z,29.01
2023-03-28T13:36:34.020Z,28.04
2023-03-28T13:39:20.351Z,28.18
2023-03-28T13:41:47.068Z,28.33
2023-03-28T13:44:20.348Z,29.00
2023-03-28T13:46:53.530Z,27.60
2023-03-28T13:49:41.422Z,28.20
2023-03-28T13:54:46.228Z,28.40
2023-03-28T13:59:55.496Z,31.91
2023-03-28T14:02:33.202Z,30.98
2023-03-28T14:05:20.720Z,32.29
2023-03-28T14:07:51.092Z,31.52
2023-03-28T14:10:20.402Z,29.17
2023-03-28T14:12:47.579Z,29.79
2023-03-28T14:15:20.417Z,27.39
2023-03-28T14:17:47.503Z,28.42
2023-03-28T14:23:00.284Z,29.74
2023-03-28T14:25:28.916Z,29.98
2023-03-28T14:27:57.148Z,28.23
2023-03-28T14:30:27.374Z,27.12
2023-03-28T14:33:01.526Z,28.14
2023-03-28T14:35:31.449Z,27.87
2023-03-28T14:38:14.198Z,28.49
2023-03-28T14:40:49.611Z,29.94
2023-03-28T14:43:20.357Z,30.77
2023-03-28T14:45:52.970Z,31.56
2023-03-28T14:48:24.201Z,32.59
2023-03-28T14:50:53.645Z,32.59
2023-03-28T14:53:27.457Z,33.40
2023-03-28T14:56:00.190Z,33.00
2023-03-28T14:58:31.156Z,33.34
2023-03-28T15:01:01.735Z,32.83
2023-03-28T15:03:40.629Z,32.30
2023-03-28T15:06:11.515Z,31.88
2023-03-28T15:08:39.462Z,31.37
2023-03-28T15:11:20.612Z,32.27
2023-03-28T15:13:58.689Z,33.84
2023-03-28T15:16:27.232Z,30.96
2023-03-28T15:19:07.175Z,31.64
2023-03-28T15:21:39.378Z,31.96
2023-03-28T15:24:10.015Z,30.25
2023-03-28T15:26:46.115Z,28.30
2023-03-28T15:29:17.883Z,28.83
2023-03-28T15:31:45.501Z,28.70
2023-03-28T15:34:20.389Z,27.48
2023-03-28T15:37:07.101Z,27.39
2023-03-28T15:39:37.320Z,28.76
2023-03-28T15:45:00.320Z,28.61
2023-03-28T15:47:33.950Z,28.37
2023-03-28T15:50:05.649Z,29.48
2023-03-28T15:52:34.648Z,26.43
2023-03-28T15:55:06.605Z,26.79
2023-03-28T15:57:33.768Z,28.48
2023-03-28T16:00:07.386Z,29.84
2023-03-28T16:02:35.526Z,28.32
2023-03-28T16:05:19.483Z,29.14
2023-03-28T16:07:46.436Z,30.16
2023-03-28T16:10:16.951Z,32.84
2023-03-28T16:12:45.059Z,30.25
2023-03-28T16:15:12.756Z,29.64
2023-03-28T16:17:42.350Z,29.48
2023-03-28T16:20:20.535Z,29.16
2023-03-28T16:22:50.169Z,31.78
2023-03-28T16:25:17.826Z,29.59
2023-03-28T16:27:44.856Z,27.96
2023-03-28T16:30:20.826Z,28.48
2023-03-28T16:32:47.797Z,27.16
2023-03-28T16:35:14.721Z,28.72
2023-03-28T16:37:41.901Z,27.49
2023-03-28T16:40:10.931Z,30.47
2023-03-28T16:42:40.941Z,32.80
2023-03-28T16:45:11.658Z,32.71
2023-03-28T16:47:39.519Z,33.94
2023-03-28T16:50:09.460Z,34.08
2023-03-28T16:52:43.309Z,35.99
2023-03-28T16:55:12.157Z,35.78
2023-03-28T16:57:41.268Z,36.29
2023-03-28T17:00:12.126Z,33.94
2023-03-28T17:02:39.591Z,32.87
2023-03-28T17:05:07.533Z,32.55
2023-03-28T17:07:34.649Z,32.65
2023-03-28T17:10:01.490Z,34.69
2023-03-28T17:12:30.054Z,37.39
2023-03-28T17:14:56.811Z,39.58
2023-03-28T17:17:23.896Z,39.04
2023-03-28T17:19:51.147Z,39.90
2023-03-28T17:24:48.702Z,40.66
2023-03-28T17:27:15.738Z,40.93
2023-03-28T17:29:42.908Z,41.25
2023-03-28T17:32:09.950Z,42.39
2023-03-28T17:34:37.198Z,42.85
2023-03-28T17:37:04.852Z,43.66
2023-03-28T17:39:40.315Z,43.27
2023-03-28T17:42:07.950Z,44.17
2023-03-28T17:44:35.523Z,44.58
2023-03-28T17:47:02.575Z,44.01
2023-03-28T17:49:33.682Z,44.82
2023-03-28T17:52:01.498Z,45.15
2023-03-28T17:54:31.782Z,45.59
2023-03-28T17:56:59.919Z,44.70
2023-03-28T17:59:27.506Z,45.80
2023-03-28T18:01:55.240Z,45.78
2023-03-28T18:04:25.110Z,46.17
2023-03-28T18:06:52.001Z,46.47
2023-03-28T18:11:45.142Z,46.40
2023-03-28T18:14:13.088Z,46.55
2023-03-28T18:16:40.710Z,46.94
2023-03-28T18:19:09.520Z,46.55
2023-03-28T18:21:38.829Z,47.05
2023-03-28T18:24:06.508Z,46.70
2023-03-28T18:26:34.392Z,46.93
2023-03-28T18:29:05.043Z,47.66
2023-03-28T18:31:33.136Z,47.75
2023-03-28T18:34:00.159Z,48.09
2023-03-28T18:36:27.104Z,47.87
2023-03-28T18:38:56.647Z,48.22
2023-03-28T18:41:24.110Z,48.70
2023-03-28T18:43:51.868Z,49.08
2023-03-28T18:46:22.049Z,49.38
2023-03-28T18:48:49.006Z,49.70
2023-03-28T18:53:46.454Z,50.54
2023-03-28T18:58:46.366Z,50.08
2023-03-28T19:01:16.647Z,50.22
2023-03-28T19:03:43.656Z,51.61
2023-03-28T19:06:13.034Z,54.20
2023-03-28T19:08:53.254Z,55.40
2023-03-28T19:11:20.213Z,54.83
2023-03-28T19:13:54.017Z,54.59
2023-03-28T19:16:22.602Z,54.48
2023-03-28T19:18:49.693Z,53.71
2023-03-28T19:21:17.382Z,53.73
2023-03-28T19:23:44.633Z,53.31
2023-03-28T19:26:13.178Z,53.29
2023-03-28T19:28:40.262Z,53.02
2023-03-28T19:31:10.240Z,53.07
2023-03-28T19:33:42.090Z,53.42
2023-03-28T19:36:10.693Z,53.43
2023-03-28T19:38:38.893Z,53.21
2023-03-28T19:41:13.163Z,53.74
2023-03-28T19:43:41.399Z,53.71
2023-03-28T19:46:11.672Z,53.43
2023-03-28T19:48:40.350Z,53.27
2023-03-28T19:51:07.439Z,53.09
2023-03-28T19:53:34.318Z,53.73
2023-03-28T19:56:01.263Z,54.44
2023-03-28T19:58:29.076Z,54.47
2023-03-28T20:00:58.674Z,54.72
2023-03-28T20:03:26.498Z,55.07
2023-03-28T20:05:53.425Z,55.09
2023-03-28T20:08:21.989Z,54.88
2023-03-28T20:10:52.087Z,55.28
2023-03-28T20:15:49.435Z,55.61
2023-03-28T20:18:20.719Z,55.83
2023-03-28T20:21:02.652Z,56.33
2023-03-28T20:23:32.284Z,55.51
2023-03-28T20:26:01.760Z,56.35
2023-03-28T20:28:32.998Z,56.01
2023-03-28T20:31:00.955Z,56.58
2023-03-28T20:33:28.156Z,56.72
2023-03-28T20:35:59.369Z,56.70
2023-03-28T20:38:27.100Z,57.08
2023-03-28T20:40:56.480Z,56.79
2023-03-28T20:43:29.849Z,56.95
2023-03-28T20:46:01.863Z,57.13
2023-03-28T20:48:37.246Z,56.85
2023-03-28T20:51:07.134Z,57.07
2023-03-28T20:53:35.125Z,57.25
2023-03-28T20:56:04.270Z,57.65
2023-03-28T20:58:32.716Z,57.86
2023-03-28T21:01:01.991Z,57.47
2023-03-28T21:03:39.661Z,60.52
2023-03-28T21:06:07.948Z,62.35
2023-03-28T21:08:36.904Z,62.19
2023-03-28T21:11:04.092Z,62.02
2023-03-28T21:13:31.849Z,60.66
2023-03-28T21:15:58.812Z,60.80
2023-03-28T21:18:26.783Z,59.95
2023-03-28T21:20:53.716Z,60.66
2023-03-28T21:23:21.127Z,60.16
2023-03-28T21:25:52.779Z,59.96
2023-03-28T21:28:19.956Z,59.49
2023-03-28T21:30:57.307Z,59.12
2023-03-28T21:33:25.132Z,59.57
2023-03-28T21:35:52.761Z,62.17
2023-03-28T21:38:20.561Z,63.44
2023-03-28T21:40:48.555Z,64.19
2023-03-28T21:43:17.390Z,63.72
2023-03-28T21:45:48.845Z,62.92
2023-03-28T21:48:17.320Z,61.69
2023-03-28T21:50:59.827Z,61.52
2023-03-28T21:53:32.931Z,61.00
2023-03-28T21:55:59.956Z,59.31
2023-03-28T21:58:30.164Z,58.86
2023-03-28T22:00:58.178Z,61.61
2023-03-28T22:03:31.217Z,60.94
2023-03-28T22:05:58.396Z,61.50
2023-03-28T22:08:25.234Z,60.26
2023-03-28T22:11:02.640Z,59.52
2023-03-28T22:13:30.626Z,59.60
2023-03-28T22:16:00.237Z,59.79
2023-03-28T22:18:28.087Z,59.58
2023-03-28T22:20:55.918Z,60.61
2023-03-28T22:23:24.247Z,60.95
2023-03-28T22:25:53.650Z,60.57
2023-03-28T22:28:28.225Z,60.91
2023-03-28T22:30:57.149Z,60.86
2023-03-28T22:33:25.750Z,60.68
2023-03-28T22:35:53.530Z,60.69
2023-03-28T22:38:20.350Z,60.55
2023-03-28T22:40:58.566Z,60.81
2023-03-28T22:43:25.696Z,60.42
2023-03-28T22:45:52.562Z,61.65
2023-03-28T22:50:46.578Z,61.57
2023-03-28T22:53:15.067Z,62.15
2023-03-28T22:55:42.258Z,62.63
2023-03-28T22:58:09.301Z,62.92
2023-03-28T23:00:36.572Z,62.83
2023-03-28T23:03:04.077Z,63.56
2023-03-28T23:05:31.120Z,64.58
2023-03-28T23:08:00.356Z,64.86
2023-03-28T23:10:27.671Z,64.11
2023-03-28T23:12:54.612Z,64.14
2023-03-28T23:15:21.466Z,64.93
2023-03-28T23:17:48.606Z,64.76
2023-03-28T23:20:16.488Z,64.51
2023-03-28T23:22:47.831Z,64.32
2023-03-28T23:25:17.828Z,64.70
2023-03-28T23:27:45.585Z,64.46
2023-03-28T23:30:14.982Z,64.67
2023-03-28T23:32:41.848Z,64.71
2023-03-28T23:35:10.659Z,64.15
2023-03-28T23:37:38.646Z,63.22
2023-03-28T23:40:15.253Z,64.31
2023-03-28T23:42:44.857Z,63.95
2023-03-28T23:45:14.246Z,64.26
2023-03-28T23:47:42.947Z,64.05
2023-03-28T23:50:10.432Z,64.20
2023-03-28T23:52:38.377Z,67.64
2023-03-28T23:55:06.795Z,68.62
2023-03-28T23:57:33.662Z,68.17
